sensor_id;sensor_type;location;lat;lon;timestamp;P1;durP1;ratioP1;P2;durP2;ratioP2
4601;SDS011;2313;48.552;9.370;2023-03-16T00:01:03;4.03;;;3.13;;
4601;SDS011;2313;48.552;9.370;2023-03-16T00:03:30;6.45;;;3.28;;
4601;SDS011;2313;48.552;9.370;2023-03-16T00:05:55;4.80;;;3.17;;
4601;SDS011;2313;48.552;9.370;2023-03-16T00:08:21;6.47;;;3.87;;
4601;SDS011;2313;48.552;9.370;2023-03-16T00:10:47;4.60;;;2.73;;
4601;SDS011;2313;48.552;9.370;2023-03-16T00:13:13;6.50;;;3.63;;
4601;SDS011;2313;48.552;9.370;2023-03-16T00:15:49;3.70;;;2.72;;
4601;SDS011;2313;48.552;9.370;2023-03-16T00:18:16;6.30;;;3.33;;
4601;SDS011;2313;48.552;9.370;2023-03-16T00:20:42;2.90;;;2.70;;
4601;SDS011;2313;48.552;9.370;2023-03-16T00:23:08;3.60;;;2.70;;
4601;SDS011;2313;48.552;9.370;2023-03-16T00:25:33;2.87;;;2.67;;
4601;SDS011;2313;48.552;9.370;2023-03-16T00:27:59;5.97;;;3.30;;
4601;SDS011;2313;48.552;9.370;2023-03-16T00:30:27;3.78;;;3.33;;
4601;SDS011;2313;48.552;9.370;2023-03-16T00:32:56;4.97;;;3.70;;
4601;SDS011;2313;48.552;9.370;2023-03-16T00:35:22;9.10;;;2.80;;
4601;SDS011;2313;48.552;9.370;2023-03-16T00:37:48;5.50;;;3.50;;
4601;SDS011;2313;48.552;9.370;2023-03-16T00:40:14;4.20;;;2.90;;
4601;SDS011;2313;48.552;9.370;2023-03-16T00:42:40;5.20;;;3.25;;
4601;SDS011;2313;48.552;9.370;2023-03-16T00:45:06;3.67;;;3.00;;
4601;SDS011;2313;48.552;9.370;2023-03-16T00:47:33;3.03;;;2.72;;
4601;SDS011;2313;48.552;9.370;2023-03-16T00:49:59;3.60;;;3.13;;
4601;SDS011;2313;48.552;9.370;2023-03-16T00:52:26;2.78;;;2.20;;
4601;SDS011;2313;48.552;9.370;2023-03-16T00:54:53;4.20;;;2.70;;
4601;SDS011;2313;48.552;9.370;2023-03-16T00:57:20;6.10;;;3.30;;
4601;SDS011;2313;48.552;9.370;2023-03-16T00:59:48;3.25;;;2.63;;
4601;SDS011;2313;48.552;9.370;2023-03-16T01:02:15;4.70;;;3.33;;
4601;SDS011;2313;48.552;9.370;2023-03-16T01:04:41;5.68;;;3.65;;
4601;SDS011;2313;48.552;9.370;2023-03-16T01:07:08;5.45;;;4.07;;
4601;SDS011;2313;48.552;9.370;2023-03-16T01:09:36;5.90;;;4.60;;
4601;SDS011;2313;48.552;9.370;2023-03-16T01:12:06;6.63;;;5.30;;
4601;SDS011;2313;48.552;9.370;2023-03-16T01:14:35;6.18;;;5.35;;
4601;SDS011;2313;48.552;9.370;2023-03-16T01:17:01;7.45;;;5.80;;
4601;SDS011;2313;48.552;9.370;2023-03-16T01:19:28;10.75;;;6.28;;
4601;SDS011;2313;48.552;9.370;2023-03-16T01:21:54;8.80;;;6.87;;
4601;SDS011;2313;48.552;9.370;2023-03-16T01:24:19;11.80;;;8.43;;
4601;SDS011;2313;48.552;9.370;2023-03-16T01:26:45;10.53;;;7.47;;
4601;SDS011;2313;48.552;9.370;2023-03-16T01:29:11;9.97;;;8.37;;
4601;SDS011;2313;48.552;9.370;2023-03-16T01:31:37;11.43;;;8.10;;
4601;SDS011;2313;48.552;9.370;2023-03-16T01:34:03;12.40;;;9.52;;
4601;SDS011;2313;48.552;9.370;2023-03-16T01:36:29;17.20;;;9.80;;
4601;SDS011;2313;48.552;9.370;2023-03-16T01:38:58;13.32;;;9.73;;
4601;SDS011;2313;48.552;9.370;2023-03-16T01:41:24;12.10;;;8.47;;
4601;SDS011;2313;48.552;9.370;2023-03-16T01:43:51;13.35;;;10.23;;
4601;SDS011;2313;48.552;9.370;2023-03-16T01:46:26;13.38;;;10.27;;
4601;SDS011;2313;48.552;9.370;2023-03-16T01:51:42;13.60;;;10.40;;
4601;SDS011;2313;48.552;9.370;2023-03-16T01:59:42;15.68;;;10.65;;
4601;SDS011;2313;48.552;9.370;2023-03-16T02:02:09;14.77;;;11.27;;
4601;SDS011;2313;48.552;9.370;2023-03-16T02:07:07;14.70;;;10.85;;
4601;SDS011;2313;48.552;9.370;2023-03-16T02:09:34;16.17;;;10.70;;
4601;SDS011;2313;48.552;9.370;2023-03-16T02:12:03;12.90;;;10.27;;
4601;SDS011;2313;48.552;9.370;2023-03-16T02:14:30;13.20;;;9.75;;
4601;SDS011;2313;48.552;9.370;2023-03-16T02:16:56;16.63;;;10.90;;
4601;SDS011;2313;48.552;9.370;2023-03-16T02:19:26;16.73;;;10.27;;
4601;SDS011;2313;48.552;9.370;2023-03-16T02:22:08;15.35;;;10.45;;
4601;SDS011;2313;48.552;9.370;2023-03-16T02:24:35;14.82;;;10.60;;
4601;SDS011;2313;48.552;9.370;2023-03-16T02:27:03;15.02;;;10.27;;
4601;SDS011;2313;48.552;9.370;2023-03-16T02:29:50;13.00;;;8.98;;
4601;SDS011;2313;48.552;9.370;2023-03-16T02:32:18;14.40;;;10.70;;
4601;SDS011;2313;48.552;9.370;2023-03-16T02:34:45;14.70;;;9.00;;
4601;SDS011;2313;48.552;9.370;2023-03-16T02:37:10;13.67;;;9.97;;
4601;SDS011;2313;48.552;9.370;2023-03-16T02:39:36;19.37;;;11.03;;
4601;SDS011;2313;48.552;9.370;2023-03-16T02:42:02;14.50;;;9.97;;
4601;SDS011;2313;48.552;9.370;2023-03-16T02:44:32;14.07;;;10.60;;
4601;SDS011;2313;48.552;9.370;2023-03-16T02:47:11;13.13;;;9.35;;
4601;SDS011;2313;48.552;9.370;2023-03-16T02:49:48;16.08;;;9.82;;
4601;SDS011;2313;48.552;9.370;2023-03-16T02:52:14;13.60;;;9.10;;
4601;SDS011;2313;48.552;9.370;2023-03-16T02:54:39;17.70;;;10.03;;
4601;SDS011;2313;48.552;9.370;2023-03-16T02:57:05;13.57;;;9.43;;
4601;SDS011;2313;48.552;9.370;2023-03-16T02:59:31;16.10;;;8.53;;
4601;SDS011;2313;48.552;9.370;2023-03-16T03:01:56;12.97;;;8.60;;
4601;SDS011;2313;48.552;9.370;2023-03-16T03:04:22;13.77;;;9.47;;
4601;SDS011;2313;48.552;9.370;2023-03-16T03:06:48;15.65;;;11.23;;
4601;SDS011;2313;48.552;9.370;2023-03-16T03:09:15;15.88;;;9.23;;
4601;SDS011;2313;48.552;9.370;2023-03-16T03:11:42;10.63;;;8.40;;
4601;SDS011;2313;48.552;9.370;2023-03-16T03:14:08;12.80;;;8.87;;
4601;SDS011;2313;48.552;9.370;2023-03-16T03:16:34;13.30;;;10.30;;
4601;SDS011;2313;48.552;9.370;2023-03-16T03:19:00;16.33;;;9.40;;
4601;SDS011;2313;48.552;9.370;2023-03-16T03:21:26;12.75;;;9.80;;
4601;SDS011;2313;48.552;9.370;2023-03-16T03:23:52;13.43;;;9.93;;
4601;SDS011;2313;48.552;9.370;2023-03-16T03:26:17;14.10;;;10.40;;
4601;SDS011;2313;48.552;9.370;2023-03-16T03:28:44;13.00;;;9.65;;
4601;SDS011;2313;48.552;9.370;2023-03-16T03:31:17;14.65;;;10.10;;
4601;SDS011;2313;48.552;9.370;2023-03-16T03:33:44;12.73;;;9.65;;
4601;SDS011;2313;48.552;9.370;2023-03-16T03:36:10;16.30;;;11.17;;
4601;SDS011;2313;48.552;9.370;2023-03-16T03:38:36;16.33;;;9.05;;
4601;SDS011;2313;48.552;9.370;2023-03-16T03:41:02;12.13;;;9.50;;
4601;SDS011;2313;48.552;9.370;2023-03-16T03:43:31;16.63;;;10.50;;
4601;SDS011;2313;48.552;9.370;2023-03-16T03:45:57;13.00;;;9.30;;
4601;SDS011;2313;48.552;9.370;2023-03-16T03:48:23;13.25;;;9.52;;
4601;SDS011;2313;48.552;9.370;2023-03-16T03:50:49;14.47;;;9.97;;
4601;SDS011;2313;48.552;9.370;2023-03-16T03:53:15;11.80;;;9.03;;
4601;SDS011;2313;48.552;9.370;2023-03-16T03:55:41;13.45;;;8.93;;
4601;SDS011;2313;48.552;9.370;2023-03-16T03:58:07;14.73;;;8.67;;
4601;SDS011;2313;48.552;9.370;2023-03-16T04:00:33;10.17;;;7.37;;
4601;SDS011;2313;48.552;9.370;2023-03-16T04:02:59;12.63;;;8.93;;
4601;SDS011;2313;48.552;9.370;2023-03-16T04:05:25;10.17;;;7.70;;
4601;SDS011;2313;48.552;9.370;2023-03-16T04:07:52;7.80;;;6.75;;
4601;SDS011;2313;48.552;9.370;2023-03-16T04:10:21;8.20;;;6.18;;
4601;SDS011;2313;48.552;9.370;2023-03-16T04:12:48;6.40;;;5.22;;
4601;SDS011;2313;48.552;9.370;2023-03-16T04:15:14;4.50;;;4.10;;
4601;SDS011;2313;48.552;9.370;2023-03-16T04:17:40;6.00;;;5.40;;
4601;SDS011;2313;48.552;9.370;2023-03-16T04:20:06;6.60;;;4.53;;
4601;SDS011;2313;48.552;9.370;2023-03-16T04:22:38;6.45;;;5.38;;
4601;SDS011;2313;48.552;9.370;2023-03-16T04:25:08;5.30;;;4.78;;
4601;SDS011;2313;48.552;9.370;2023-03-16T04:27:34;7.20;;;5.10;;
4601;SDS011;2313;48.552;9.370;2023-03-16T04:30:04;6.30;;;5.20;;
4601;SDS011;2313;48.552;9.370;2023-03-16T04:32:32;7.95;;;5.22;;
4601;SDS011;2313;48.552;9.370;2023-03-16T04:34:58;10.88;;;4.93;;
4601;SDS011;2313;48.552;9.370;2023-03-16T04:37:24;5.67;;;5.03;;
4601;SDS011;2313;48.552;9.370;2023-03-16T04:39:49;5.80;;;4.40;;
4601;SDS011;2313;48.552;9.370;2023-03-16T04:42:15;6.70;;;5.80;;
4601;SDS011;2313;48.552;9.370;2023-03-16T04:44:41;4.83;;;4.33;;
4601;SDS011;2313;48.552;9.370;2023-03-16T04:47:10;4.40;;;3.72;;
4601;SDS011;2313;48.552;9.370;2023-03-16T04:49:36;4.40;;;4.00;;
4601;SDS011;2313;48.552;9.370;2023-03-16T04:52:02;4.40;;;3.73;;
4601;SDS011;2313;48.552;9.370;2023-03-16T04:54:28;3.53;;;3.17;;
4601;SDS011;2313;48.552;9.370;2023-03-16T04:56:54;7.68;;;3.67;;
4601;SDS011;2313;48.552;9.370;2023-03-16T04:59:20;4.70;;;4.20;;
4601;SDS011;2313;48.552;9.370;2023-03-16T05:01:47;6.05;;;5.22;;
4601;SDS011;2313;48.552;9.370;2023-03-16T05:04:13;4.60;;;4.15;;
4601;SDS011;2313;48.552;9.370;2023-03-16T05:06:38;6.57;;;4.70;;
4601;SDS011;2313;48.552;9.370;2023-03-16T05:09:04;3.67;;;3.00;;
4601;SDS011;2313;48.552;9.370;2023-03-16T05:11:32;4.63;;;4.22;;
4601;SDS011;2313;48.552;9.370;2023-03-16T05:13:57;6.10;;;4.80;;
4601;SDS011;2313;48.552;9.370;2023-03-16T05:16:23;5.83;;;5.03;;
4601;SDS011;2313;48.552;9.370;2023-03-16T05:18:49;8.20;;;5.00;;
4601;SDS011;2313;48.552;9.370;2023-03-16T05:21:16;6.68;;;5.30;;
4601;SDS011;2313;48.552;9.370;2023-03-16T05:23:42;5.03;;;4.60;;
4601;SDS011;2313;48.552;9.370;2023-03-16T05:26:07;5.40;;;4.33;;
4601;SDS011;2313;48.552;9.370;2023-03-16T05:28:33;4.43;;;4.03;;
4601;SDS011;2313;48.552;9.370;2023-03-16T05:30:59;5.30;;;4.13;;
4601;SDS011;2313;48.552;9.370;2023-03-16T05:33:27;4.45;;;4.05;;
4601;SDS011;2313;48.552;9.370;2023-03-16T05:35:53;4.10;;;3.70;;
4601;SDS011;2313;48.552;9.370;2023-03-16T05:38:18;4.50;;;4.10;;
4601;SDS011;2313;48.552;9.370;2023-03-16T05:40:44;4.33;;;3.80;;
4601;SDS011;2313;48.552;9.370;2023-03-16T05:43:10;4.20;;;3.80;;
4601;SDS011;2313;48.552;9.370;2023-03-16T05:45:36;4.07;;;3.67;;
4601;SDS011;2313;48.552;9.370;2023-03-16T05:48:01;9.27;;;4.83;;
4601;SDS011;2313;48.552;9.370;2023-03-16T05:50:29;5.93;;;4.38;;
4601;SDS011;2313;48.552;9.370;2023-03-16T05:52:55;4.80;;;4.30;;
4601;SDS011;2313;48.552;9.370;2023-03-16T05:55:20;7.67;;;4.50;;
4601;SDS011;2313;48.552;9.370;2023-03-16T05:57:46;5.90;;;4.00;;
4601;SDS011;2313;48.552;9.370;2023-03-16T06:00:12;5.83;;;4.33;;
4601;SDS011;2313;48.552;9.370;2023-03-16T06:02:40;9.52;;;4.70;;
4601;SDS011;2313;48.552;9.370;2023-03-16T06:05:07;5.47;;;4.75;;
4601;SDS011;2313;48.552;9.370;2023-03-16T06:07:34;9.52;;;6.07;;
4601;SDS011;2313;48.552;9.370;2023-03-16T06:09:59;12.73;;;6.53;;
4601;SDS011;2313;48.552;9.370;2023-03-16T06:12:25;11.67;;;7.33;;
4601;SDS011;2313;48.552;9.370;2023-03-16T06:14:51;9.27;;;6.13;;
4601;SDS011;2313;48.552;9.370;2023-03-16T06:17:17;10.13;;;5.87;;
4601;SDS011;2313;48.552;9.370;2023-03-16T06:19:42;7.73;;;5.17;;
4601;SDS011;2313;48.552;9.370;2023-03-16T06:22:08;7.90;;;5.30;;
4601;SDS011;2313;48.552;9.370;2023-03-16T06:24:33;9.27;;;5.77;;
4601;SDS011;2313;48.552;9.370;2023-03-16T06:26:59;6.90;;;5.20;;
4601;SDS011;2313;48.552;9.370;2023-03-16T06:29:25;4.60;;;4.20;;
4601;SDS011;2313;48.552;9.370;2023-03-16T06:31:50;4.83;;;4.30;;
4601;SDS011;2313;48.552;9.370;2023-03-16T06:34:17;5.57;;;4.10;;
4601;SDS011;2313;48.552;9.370;2023-03-16T06:36:43;7.53;;;4.77;;
4601;SDS011;2313;48.552;9.370;2023-03-16T06:39:08;5.00;;;4.37;;
4601;SDS011;2313;48.552;9.370;2023-03-16T06:41:34;4.97;;;4.13;;
4601;SDS011;2313;48.552;9.370;2023-03-16T06:44:00;6.27;;;4.43;;
4601;SDS011;2313;48.552;9.370;2023-03-16T06:46:26;7.23;;;4.50;;
4601;SDS011;2313;48.552;9.370;2023-03-16T06:48:52;5.90;;;4.10;;
4601;SDS011;2313;48.552;9.370;2023-03-16T06:51:17;7.47;;;4.67;;
4601;SDS011;2313;48.552;9.370;2023-03-16T06:53:43;6.10;;;4.07;;
4601;SDS011;2313;48.552;9.370;2023-03-16T06:56:09;5.40;;;4.30;;
4601;SDS011;2313;48.552;9.370;2023-03-16T06:58:35;5.77;;;4.23;;
4601;SDS011;2313;48.552;9.370;2023-03-16T07:01:01;6.70;;;4.27;;
4601;SDS011;2313;48.552;9.370;2023-03-16T07:03:27;20.13;;;5.03;;
4601;SDS011;2313;48.552;9.370;2023-03-16T07:05:53;14.93;;;4.97;;
4601;SDS011;2313;48.552;9.370;2023-03-16T07:08:19;8.40;;;4.63;;
4601;SDS011;2313;48.552;9.370;2023-03-16T07:10:44;6.40;;;4.87;;
4601;SDS011;2313;48.552;9.370;2023-03-16T07:13:10;7.10;;;4.47;;
4601;SDS011;2313;48.552;9.370;2023-03-16T07:15:36;5.27;;;4.07;;
4601;SDS011;2313;48.552;9.370;2023-03-16T07:18:01;5.37;;;4.00;;
4601;SDS011;2313;48.552;9.370;2023-03-16T07:20:27;4.80;;;4.30;;
4601;SDS011;2313;48.552;9.370;2023-03-16T07:22:55;5.60;;;4.30;;
4601;SDS011;2313;48.552;9.370;2023-03-16T07:25:20;5.43;;;4.67;;
4601;SDS011;2313;48.552;9.370;2023-03-16T07:27:46;6.10;;;4.60;;
4601;SDS011;2313;48.552;9.370;2023-03-16T07:30:12;4.97;;;4.13;;
4601;SDS011;2313;48.552;9.370;2023-03-16T07:32:39;5.20;;;4.23;;
4601;SDS011;2313;48.552;9.370;2023-03-16T07:35:06;6.50;;;4.63;;
4601;SDS011;2313;48.552;9.370;2023-03-16T07:37:35;5.27;;;4.20;;
4601;SDS011;2313;48.552;9.370;2023-03-16T07:40:02;5.73;;;3.70;;
4601;SDS011;2313;48.552;9.370;2023-03-16T07:42:29;7.10;;;4.87;;
4601;SDS011;2313;48.552;9.370;2023-03-16T07:44:54;7.10;;;4.60;;
4601;SDS011;2313;48.552;9.370;2023-03-16T07:47:20;5.97;;;4.33;;
4601;SDS011;2313;48.552;9.370;2023-03-16T07:49:46;5.43;;;3.30;;
4601;SDS011;2313;48.552;9.370;2023-03-16T07:52:11;5.00;;;3.80;;
4601;SDS011;2313;48.552;9.370;2023-03-16T07:54:38;4.87;;;4.00;;
4601;SDS011;2313;48.552;9.370;2023-03-16T07:57:04;6.90;;;3.70;;
4601;SDS011;2313;48.552;9.370;2023-03-16T07:59:30;9.17;;;3.73;;
4601;SDS011;2313;48.552;9.370;2023-03-16T08:01:56;5.00;;;3.80;;
4601;SDS011;2313;48.552;9.370;2023-03-16T08:04:21;7.20;;;3.97;;
4601;SDS011;2313;48.552;9.370;2023-03-16T08:06:47;5.20;;;3.60;;
4601;SDS011;2313;48.552;9.370;2023-03-16T08:09:13;3.27;;;2.97;;
4601;SDS011;2313;48.552;9.370;2023-03-16T08:11:39;5.70;;;3.23;;
4601;SDS011;2313;48.552;9.370;2023-03-16T08:14:05;5.67;;;3.53;;
4601;SDS011;2313;48.552;9.370;2023-03-16T08:16:31;5.00;;;3.40;;
4601;SDS011;2313;48.552;9.370;2023-03-16T08:18:56;4.97;;;3.80;;
4601;SDS011;2313;48.552;9.370;2023-03-16T08:21:23;4.33;;;3.20;;
4601;SDS011;2313;48.552;9.370;2023-03-16T08:23:49;8.47;;;3.60;;
4601;SDS011;2313;48.552;9.370;2023-03-16T08:26:16;4.33;;;3.70;;
4601;SDS011;2313;48.552;9.370;2023-03-16T08:28:45;5.53;;;4.07;;
4601;SDS011;2313;48.552;9.370;2023-03-16T08:31:14;4.40;;;2.97;;
4601;SDS011;2313;48.552;9.370;2023-03-16T08:33:41;3.53;;;3.23;;
4601;SDS011;2313;48.552;9.370;2023-03-16T08:36:08;3.90;;;2.90;;
4601;SDS011;2313;48.552;9.370;2023-03-16T08:38:35;3.70;;;3.40;;
4601;SDS011;2313;48.552;9.370;2023-03-16T08:41:02;5.40;;;3.23;;
4601;SDS011;2313;48.552;9.370;2023-03-16T08:43:28;5.37;;;2.73;;
4601;SDS011;2313;48.552;9.370;2023-03-16T08:45:54;3.53;;;2.33;;
4601;SDS011;2313;48.552;9.370;2023-03-16T08:48:20;4.83;;;3.40;;
4601;SDS011;2313;48.552;9.370;2023-03-16T08:50:46;4.03;;;3.30;;
4601;SDS011;2313;48.552;9.370;2023-03-16T08:53:12;3.37;;;2.73;;
4601;SDS011;2313;48.552;9.370;2023-03-16T08:55:39;4.13;;;2.93;;
4601;SDS011;2313;48.552;9.370;2023-03-16T08:58:06;3.30;;;2.73;;
4601;SDS011;2313;48.552;9.370;2023-03-16T09:00:32;3.80;;;2.87;;
4601;SDS011;2313;48.552;9.370;2023-03-16T09:02:59;5.07;;;2.73;;
4601;SDS011;2313;48.552;9.370;2023-03-16T09:05:24;6.67;;;3.30;;
4601;SDS011;2313;48.552;9.370;2023-03-16T09:07:50;5.80;;;3.40;;
4601;SDS011;2313;48.552;9.370;2023-03-16T09:10:17;5.40;;;2.60;;
4601;SDS011;2313;48.552;9.370;2023-03-16T09:12:43;5.43;;;3.47;;
4601;SDS011;2313;48.552;9.370;2023-03-16T09:15:10;6.87;;;3.23;;
4601;SDS011;2313;48.552;9.370;2023-03-16T09:17:37;5.03;;;3.10;;
4601;SDS011;2313;48.552;9.370;2023-03-16T09:20:06;2.50;;;2.10;;
4601;SDS011;2313;48.552;9.370;2023-03-16T09:22:33;3.53;;;2.50;;
4601;SDS011;2313;48.552;9.370;2023-03-16T09:25:00;2.50;;;2.30;;
4601;SDS011;2313;48.552;9.370;2023-03-16T09:27:26;3.90;;;2.40;;
4601;SDS011;2313;48.552;9.370;2023-03-16T09:29:52;3.90;;;2.63;;
4601;SDS011;2313;48.552;9.370;2023-03-16T09:32:20;4.87;;;3.03;;
4601;SDS011;2313;48.552;9.370;2023-03-16T09:34:46;3.30;;;2.40;;
4601;SDS011;2313;48.552;9.370;2023-03-16T09:37:12;7.33;;;3.10;;
4601;SDS011;2313;48.552;9.370;2023-03-16T09:39:38;6.03;;;2.50;;
4601;SDS011;2313;48.552;9.370;2023-03-16T09:42:11;3.73;;;2.50;;
4601;SDS011;2313;48.552;9.370;2023-03-16T09:47:40;3.93;;;2.73;;
4601;SDS011;2313;48.552;9.370;2023-03-16T09:50:12;4.13;;;2.50;;
4601;SDS011;2313;48.552;9.370;2023-03-16T09:52:49;3.00;;;2.53;;
4601;SDS011;2313;48.552;9.370;2023-03-16T09:57:59;2.17;;;1.97;;
4601;SDS011;2313;48.552;9.370;2023-03-16T10:00:26;2.50;;;2.30;;
4601;SDS011;2313;48.552;9.370;2023-03-16T10:05:59;4.87;;;2.70;;
4601;SDS011;2313;48.552;9.370;2023-03-16T10:08:32;5.77;;;3.10;;
4601;SDS011;2313;48.552;9.370;2023-03-16T10:13:55;4.90;;;3.47;;
4601;SDS011;2313;48.552;9.370;2023-03-16T10:19:06;3.60;;;3.20;;
4601;SDS011;2313;48.552;9.370;2023-03-16T10:21:53;7.50;;;4.67;;
4601;SDS011;2313;48.552;9.370;2023-03-16T10:26:50;9.67;;;5.60;;
4601;SDS011;2313;48.552;9.370;2023-03-16T10:29:20;4.83;;;4.00;;
4601;SDS011;2313;48.552;9.370;2023-03-16T10:31:45;4.97;;;4.20;;
4601;SDS011;2313;48.552;9.370;2023-03-16T10:34:12;5.10;;;4.00;;
4601;SDS011;2313;48.552;9.370;2023-03-16T10:36:40;4.37;;;3.50;;
4601;SDS011;2313;48.552;9.370;2023-03-16T10:39:12;3.87;;;3.40;;
4601;SDS011;2313;48.552;9.370;2023-03-16T10:41:44;8.40;;;3.50;;
4601;SDS011;2313;48.552;9.370;2023-03-16T10:44:13;4.57;;;3.70;;
4601;SDS011;2313;48.552;9.370;2023-03-16T10:46:45;5.37;;;3.53;;
4601;SDS011;2313;48.552;9.370;2023-03-16T10:51:54;3.30;;;2.90;;
4601;SDS011;2313;48.552;9.370;2023-03-16T10:54:27;3.10;;;2.70;;
4601;SDS011;2313;48.552;9.370;2023-03-16T10:56:58;2.93;;;2.37;;
4601;SDS011;2313;48.552;9.370;2023-03-16T10:59:26;4.00;;;2.60;;
4601;SDS011;2313;48.552;9.370;2023-03-16T11:02:07;2.63;;;2.43;;
4601;SDS011;2313;48.552;9.370;2023-03-16T11:04:40;3.70;;;2.90;;
4601;SDS011;2313;48.552;9.370;2023-03-16T11:07:06;3.30;;;2.97;;
4601;SDS011;2313;48.552;9.370;2023-03-16T11:09:38;4.00;;;2.50;;
4601;SDS011;2313;48.552;9.370;2023-03-16T11:15:03;4.30;;;2.60;;
4601;SDS011;2313;48.552;9.370;2023-03-16T11:17:44;3.00;;;2.70;;
4601;SDS011;2313;48.552;9.370;2023-03-16T11:20:28;3.70;;;2.60;;
4601;SDS011;2313;48.552;9.370;2023-03-16T11:22:56;3.77;;;2.37;;
4601;SDS011;2313;48.552;9.370;2023-03-16T11:25:28;2.33;;;2.13;;
4601;SDS011;2313;48.552;9.370;2023-03-16T11:30:46;4.13;;;2.40;;
4601;SDS011;2313;48.552;9.370;2023-03-16T11:33:20;3.73;;;2.90;;
4601;SDS011;2313;48.552;9.370;2023-03-16T11:41:25;3.53;;;2.30;;
4601;SDS011;2313;48.552;9.370;2023-03-16T11:44:21;2.50;;;2.13;;
4601;SDS011;2313;48.552;9.370;2023-03-16T11:58:20;2.17;;;1.97;;
4601;SDS011;2313;48.552;9.370;2023-03-16T12:06:50;2.20;;;1.73;;
4601;SDS011;2313;48.552;9.370;2023-03-16T12:17:58;6.40;;;2.13;;
4601;SDS011;2313;48.552;9.370;2023-03-16T12:20:30;3.23;;;1.90;;
4601;SDS011;2313;48.552;9.370;2023-03-16T12:23:11;2.53;;;2.00;;
4601;SDS011;2313;48.552;9.370;2023-03-16T12:25:46;3.10;;;1.90;;
4601;SDS011;2313;48.552;9.370;2023-03-16T12:28:16;2.07;;;1.87;;
4601;SDS011;2313;48.552;9.370;2023-03-16T12:33:43;5.23;;;2.43;;
4601;SDS011;2313;48.552;9.370;2023-03-16T12:36:32;7.40;;;2.30;;
4601;SDS011;2313;48.552;9.370;2023-03-16T12:39:32;3.40;;;2.30;;
4601;SDS011;2313;48.552;9.370;2023-03-16T12:42:18;6.00;;;2.80;;
4601;SDS011;2313;48.552;9.370;2023-03-16T12:50:07;3.37;;;2.13;;
4601;SDS011;2313;48.552;9.370;2023-03-16T12:52:42;2.03;;;1.70;;
4601;SDS011;2313;48.552;9.370;2023-03-16T12:57:40;2.30;;;2.10;;
4601;SDS011;2313;48.552;9.370;2023-03-16T13:00:08;2.13;;;1.80;;
4601;SDS011;2313;48.552;9.370;2023-03-16T13:02:37;8.97;;;2.57;;
4601;SDS011;2313;48.552;9.370;2023-03-16T13:05:14;8.80;;;2.00;;
4601;SDS011;2313;48.552;9.370;2023-03-16T13:07:46;3.90;;;2.63;;
4601;SDS011;2313;48.552;9.370;2023-03-16T13:10:14;2.37;;;2.17;;
4601;SDS011;2313;48.552;9.370;2023-03-16T13:12:41;2.17;;;2.07;;
4601;SDS011;2313;48.552;9.370;2023-03-16T13:15:23;5.20;;;2.33;;
4601;SDS011;2313;48.552;9.370;2023-03-16T13:20:49;5.30;;;2.13;;
4601;SDS011;2313;48.552;9.370;2023-03-16T13:23:51;2.57;;;2.03;;
4601;SDS011;2313;48.552;9.370;2023-03-16T13:29:05;3.83;;;1.87;;
4601;SDS011;2313;48.552;9.370;2023-03-16T13:31:42;2.67;;;1.60;;
4601;SDS011;2313;48.552;9.370;2023-03-16T13:34:11;3.50;;;1.90;;
4601;SDS011;2313;48.552;9.370;2023-03-16T13:36:46;3.20;;;2.37;;
4601;SDS011;2313;48.552;9.370;2023-03-16T13:39:18;3.37;;;2.30;;
4601;SDS011;2313;48.552;9.370;2023-03-16T13:42:00;3.00;;;2.27;;
4601;SDS011;2313;48.552;9.370;2023-03-16T13:44:32;2.50;;;2.30;;
4601;SDS011;2313;48.552;9.370;2023-03-16T13:47:02;2.23;;;2.10;;
4601;SDS011;2313;48.552;9.370;2023-03-16T13:49:29;3.10;;;1.83;;
4601;SDS011;2313;48.552;9.370;2023-03-16T13:51:54;2.20;;;1.67;;
4601;SDS011;2313;48.552;9.370;2023-03-16T13:54:25;2.40;;;1.73;;
4601;SDS011;2313;48.552;9.370;2023-03-16T13:56:54;2.30;;;2.10;;
4601;SDS011;2313;48.552;9.370;2023-03-16T13:59:27;1.93;;;1.77;;
4601;SDS011;2313;48.552;9.370;2023-03-16T14:01:55;4.23;;;2.30;;
4601;SDS011;2313;48.552;9.370;2023-03-16T14:04:22;3.33;;;2.30;;
4601;SDS011;2313;48.552;9.370;2023-03-16T14:06:54;2.30;;;2.10;;
4601;SDS011;2313;48.552;9.370;2023-03-16T14:09:20;1.60;;;1.50;;
4601;SDS011;2313;48.552;9.370;2023-03-16T14:11:50;5.00;;;2.27;;
4601;SDS011;2313;48.552;9.370;2023-03-16T14:14:16;5.43;;;2.10;;
4601;SDS011;2313;48.552;9.370;2023-03-16T14:16:52;3.80;;;2.37;;
4601;SDS011;2313;48.552;9.370;2023-03-16T14:19:26;2.40;;;1.80;;
4601;SDS011;2313;48.552;9.370;2023-03-16T14:22:00;2.87;;;2.47;;
4601;SDS011;2313;48.552;9.370;2023-03-16T14:24:34;3.30;;;2.50;;
4601;SDS011;2313;48.552;9.370;2023-03-16T14:29:58;2.63;;;2.33;;
4601;SDS011;2313;48.552;9.370;2023-03-16T14:32:27;5.40;;;2.33;;
4601;SDS011;2313;48.552;9.370;2023-03-16T14:37:40;3.00;;;2.70;;
4601;SDS011;2313;48.552;9.370;2023-03-16T14:40:20;4.47;;;2.40;;
4601;SDS011;2313;48.552;9.370;2023-03-16T14:42:48;2.57;;;2.37;;
4601;SDS011;2313;48.552;9.370;2023-03-16T14:45:15;4.17;;;2.70;;
4601;SDS011;2313;48.552;9.370;2023-03-16T14:47:42;5.40;;;2.90;;
4601;SDS011;2313;48.552;9.370;2023-03-16T14:50:16;3.53;;;2.80;;
4601;SDS011;2313;48.552;9.370;2023-03-16T14:52:46;3.37;;;3.07;;
4601;SDS011;2313;48.552;9.370;2023-03-16T14:55:13;4.13;;;2.60;;
4601;SDS011;2313;48.552;9.370;2023-03-16T14:57:41;5.00;;;3.00;;
4601;SDS011;2313;48.552;9.370;2023-03-16T15:00:10;2.47;;;2.27;;
4601;SDS011;2313;48.552;9.370;2023-03-16T15:02:38;4.30;;;3.17;;
4601;SDS011;2313;48.552;9.370;2023-03-16T15:05:06;3.33;;;2.70;;
4601;SDS011;2313;48.552;9.370;2023-03-16T15:07:34;3.73;;;2.40;;
4601;SDS011;2313;48.552;9.370;2023-03-16T15:10:16;2.93;;;2.63;;
4601;SDS011;2313;48.552;9.370;2023-03-16T15:12:49;2.93;;;2.57;;
4601;SDS011;2313;48.552;9.370;2023-03-16T15:15:20;3.97;;;2.70;;
4601;SDS011;2313;48.552;9.370;2023-03-16T15:17:48;2.70;;;2.50;;
4601;SDS011;2313;48.552;9.370;2023-03-16T15:20:19;7.50;;;2.70;;
4601;SDS011;2313;48.552;9.370;2023-03-16T15:22:54;4.20;;;3.20;;
4601;SDS011;2313;48.552;9.370;2023-03-16T15:25:42;3.30;;;3.00;;
4601;SDS011;2313;48.552;9.370;2023-03-16T15:28:10;3.47;;;2.63;;
4601;SDS011;2313;48.552;9.370;2023-03-16T15:30:36;3.80;;;2.73;;
4601;SDS011;2313;48.552;9.370;2023-03-16T15:33:02;3.67;;;2.90;;
4601;SDS011;2313;48.552;9.370;2023-03-16T15:35:27;3.03;;;2.80;;
4601;SDS011;2313;48.552;9.370;2023-03-16T15:37:53;4.23;;;2.90;;
4601;SDS011;2313;48.552;9.370;2023-03-16T15:40:20;3.03;;;2.73;;
4601;SDS011;2313;48.552;9.370;2023-03-16T15:42:46;5.40;;;3.27;;
4601;SDS011;2313;48.552;9.370;2023-03-16T15:45:13;2.47;;;2.27;;
4601;SDS011;2313;48.552;9.370;2023-03-16T15:47:42;3.40;;;2.70;;
4601;SDS011;2313;48.552;9.370;2023-03-16T15:50:09;4.20;;;3.20;;
4601;SDS011;2313;48.552;9.370;2023-03-16T15:52:37;4.00;;;3.27;;
4601;SDS011;2313;48.552;9.370;2023-03-16T15:55:04;6.33;;;2.70;;
4601;SDS011;2313;48.552;9.370;2023-03-16T15:57:33;5.80;;;3.43;;
4601;SDS011;2313;48.552;9.370;2023-03-16T15:59:59;3.93;;;3.20;;
4601;SDS011;2313;48.552;9.370;2023-03-16T16:02:29;3.87;;;3.40;;
4601;SDS011;2313;48.552;9.370;2023-03-16T16:04:56;3.00;;;2.43;;
4601;SDS011;2313;48.552;9.370;2023-03-16T16:07:23;4.20;;;2.70;;
4601;SDS011;2313;48.552;9.370;2023-03-16T16:09:49;3.10;;;2.80;;
4601;SDS011;2313;48.552;9.370;2023-03-16T16:12:15;3.60;;;3.03;;
4601;SDS011;2313;48.552;9.370;2023-03-16T16:14:43;3.10;;;2.77;;
4601;SDS011;2313;48.552;9.370;2023-03-16T16:17:13;4.73;;;3.30;;
4601;SDS011;2313;48.552;9.370;2023-03-16T16:19:49;3.23;;;2.93;;
4601;SDS011;2313;48.552;9.370;2023-03-16T16:22:17;3.07;;;2.77;;
4601;SDS011;2313;48.552;9.370;2023-03-16T16:24:43;5.23;;;4.10;;
4601;SDS011;2313;48.552;9.370;2023-03-16T16:27:09;4.70;;;3.40;;
4601;SDS011;2313;48.552;9.370;2023-03-16T16:29:36;3.43;;;3.10;;
4601;SDS011;2313;48.552;9.370;2023-03-16T16:32:03;5.40;;;4.40;;
4601;SDS011;2313;48.552;9.370;2023-03-16T16:34:40;7.03;;;4.03;;
4601;SDS011;2313;48.552;9.370;2023-03-16T16:37:07;3.00;;;2.70;;
4601;SDS011;2313;48.552;9.370;2023-03-16T16:39:33;4.27;;;2.57;;
4601;SDS011;2313;48.552;9.370;2023-03-16T16:41:59;11.03;;;5.90;;
4601;SDS011;2313;48.552;9.370;2023-03-16T16:44:26;3.87;;;3.47;;
4601;SDS011;2313;48.552;9.370;2023-03-16T16:46:54;4.63;;;2.90;;
4601;SDS011;2313;48.552;9.370;2023-03-16T16:49:21;9.63;;;3.50;;